sensor_id;sensor_type;location;lat;lon;timestamp;temperature;humidity
63260;DHT22;49390;51.380;0.098;2022-09-09T00:01:49;16.00;99.90
63260;DHT22;49390;51.380;0.098;2022-09-09T00:04:28;16.10;99.90
63260;DHT22;49390;51.380;0.098;2022-09-09T00:07:22;16.10;99.90
63260;DHT22;49390;51.380;0.098;2022-09-09T00:13:09;16.10;99.90
63260;DHT22;49390;51.380;0.098;2022-09-09T00:19:06;16.10;99.90
63260;DHT22;49390;51.380;0.098;2022-09-09T00:21:38;16.10;99.90
63260;DHT22;49390;51.380;0.098;2022-09-09T00:24:28;16.10;99.90
63260;DHT22;49390;51.380;0.098;2022-09-09T00:27:06;16.10;99.90
63260;DHT22;49390;51.380;0.098;2022-09-09T00:29:45;16.10;99.90
63260;DHT22;49390;51.380;0.098;2022-09-09T00:32:17;16.10;99.90
63260;DHT22;49390;51.380;0.098;2022-09-09T00:35:12;16.10;99.90
63260;DHT22;49390;51.380;0.098;2022-09-09T00:37:46;16.10;99.90
63260;DHT22;49390;51.380;0.098;2022-09-09T00:40:27;16.10;99.90
63260;DHT22;49390;51.380;0.098;2022-09-09T00:51:28;16.20;99.90
63260;DHT22;49390;51.380;0.098;2022-09-09T00:56:51;16.10;99.90
63260;DHT22;49390;51.380;0.098;2022-09-09T00:59:39;16.20;99.90
63260;DHT22;49390;51.380;0.098;2022-09-09T01:02:19;16.20;99.90
63260;DHT22;49390;51.380;0.098;2022-09-09T01:04:49;16.20;99.90
63260;DHT22;49390;51.380;0.098;2022-09-09T01:07:19;16.20;99.90
63260;DHT22;49390;51.380;0.098;2022-09-09T01:09:51;16.20;99.90
63260;DHT22;49390;51.380;0.098;2022-09-09T01:12:40;16.20;99.90
63260;DHT22;49390;51.380;0.098;2022-09-09T01:15:22;16.20;99.90
63260;DHT22;49390;51.380;0.098;2022-09-09T01:17:58;16.20;99.90
63260;DHT22;49390;51.380;0.098;2022-09-09T01:26:43;16.20;99.90
63260;DHT22;49390;51.380;0.098;2022-09-09T01:29:25;16.20;99.90
63260;DHT22;49390;51.380;0.098;2022-09-09T01:31:57;16.20;99.90
63260;DHT22;49390;51.380;0.098;2022-09-09T01:34:38;16.20;99.90
63260;DHT22;49390;51.380;0.098;2022-09-09T01:37:11;16.20;99.90
63260;DHT22;49390;51.380;0.098;2022-09-09T01:39:43;16.20;99.90
63260;DHT22;49390;51.380;0.098;2022-09-09T01:42:16;16.20;99.90
63260;DHT22;49390;51.380;0.098;2022-09-09T01:44:45;16.20;99.90
63260;DHT22;49390;51.380;0.098;2022-09-09T01:47:15;16.20;99.90
63260;DHT22;49390;51.380;0.098;2022-09-09T01:50:03;16.20;99.90
63260;DHT22;49390;51.380;0.098;2022-09-09T01:52:33;16.20;99.90
63260;DHT22;49390;51.380;0.098;2022-09-09T01:55:08;16.20;99.90
63260;DHT22;49390;51.380;0.098;2022-09-09T02:01:01;16.20;99.90
63260;DHT22;49390;51.380;0.098;2022-09-09T02:03:35;16.30;99.90
63260;DHT22;49390;51.380;0.098;2022-09-09T02:06:33;16.20;99.90
63260;DHT22;49390;51.380;0.098;2022-09-09T02:09:22;16.20;99.90
63260;DHT22;49390;51.380;0.098;2022-09-09T02:12:02;16.20;99.90
63260;DHT22;49390;51.380;0.098;2022-09-09T02:14:46;16.20;99.90
63260;DHT22;49390;51.380;0.098;2022-09-09T02:17:21;16.20;99.90
63260;DHT22;49390;51.380;0.098;2022-09-09T02:20:05;16.20;99.90
63260;DHT22;49390;51.380;0.098;2022-09-09T02:22:43;16.10;99.90
63260;DHT22;49390;51.380;0.098;2022-09-09T02:25:17;16.10;99.90
63260;DHT22;49390;51.380;0.098;2022-09-09T02:27:50;16.10;99.90
63260;DHT22;49390;51.380;0.098;2022-09-09T02:30:19;16.00;99.90
63260;DHT22;49390;51.380;0.098;2022-09-09T02:32:57;16.00;99.90
63260;DHT22;49390;51.380;0.098;2022-09-09T02:35:42;16.00;99.90
63260;DHT22;49390;51.380;0.098;2022-09-09T02:38:13;15.90;99.90
63260;DHT22;49390;51.380;0.098;2022-09-09T02:40:51;16.00;99.90
63260;DHT22;49390;51.380;0.098;2022-09-09T02:43:20;15.90;99.90
63260;DHT22;49390;51.380;0.098;2022-09-09T02:46:17;15.90;99.90
63260;DHT22;49390;51.380;0.098;2022-09-09T02:49:18;15.90;99.90
63260;DHT22;49390;51.380;0.098;2022-09-09T02:51:53;16.00;99.90
63260;DHT22;49390;51.380;0.098;2022-09-09T02:54:31;16.00;99.90
63260;DHT22;49390;51.380;0.098;2022-09-09T02:57:08;15.90;99.90
63260;DHT22;49390;51.380;0.098;2022-09-09T02:59:40;15.90;99.90
63260;DHT22;49390;51.380;0.098;2022-09-09T03:02:09;15.90;99.90
63260;DHT22;49390;51.380;0.098;2022-09-09T03:04:40;16.00;99.90
63260;DHT22;49390;51.380;0.098;2022-09-09T03:07:09;16.00;99.90
63260;DHT22;49390;51.380;0.098;2022-09-09T03:09:38;15.90;99.90
63260;DHT22;49390;51.380;0.098;2022-09-09T03:12:06;15.90;99.90
63260;DHT22;49390;51.380;0.098;2022-09-09T03:14:35;15.90;99.90
63260;DHT22;49390;51.380;0.098;2022-09-09T03:17:07;16.00;99.90
63260;DHT22;49390;51.380;0.098;2022-09-09T03:19:44;15.90;99.90
63260;DHT22;49390;51.380;0.098;2022-09-09T03:22:14;15.90;99.90
63260;DHT22;49390;51.380;0.098;2022-09-09T03:24:43;15.90;99.90
63260;DHT22;49390;51.380;0.098;2022-09-09T03:27:12;15.90;99.90
63260;DHT22;49390;51.380;0.098;2022-09-09T03:29:41;15.90;99.90
63260;DHT22;49390;51.380;0.098;2022-09-09T03:32:14;15.90;99.90
63260;DHT22;49390;51.380;0.098;2022-09-09T03:34:43;15.90;99.90
63260;DHT22;49390;51.380;0.098;2022-09-09T03:37:13;15.90;99.90
63260;DHT22;49390;51.380;0.098;2022-09-09T03:39:42;15.90;99.90
63260;DHT22;49390;51.380;0.098;2022-09-09T03:42:13;15.90;99.90
63260;DHT22;49390;51.380;0.098;2022-09-09T03:44:41;15.90;99.90
63260;DHT22;49390;51.380;0.098;2022-09-09T03:47:10;15.90;99.90
63260;DHT22;49390;51.380;0.098;2022-09-09T03:49:38;15.90;99.90
63260;DHT22;49390;51.380;0.098;2022-09-09T03:52:08;15.90;99.90
63260;DHT22;49390;51.380;0.098;2022-09-09T03:54:36;15.90;99.90
63260;DHT22;49390;51.380;0.098;2022-09-09T03:59:25;15.90;99.90
63260;DHT22;49390;51.380;0.098;2022-09-09T04:01:54;15.90;99.90
63260;DHT22;49390;51.380;0.098;2022-09-09T04:04:22;15.90;99.90
63260;DHT22;49390;51.380;0.098;2022-09-09T04:06:50;16.00;99.90
63260;DHT22;49390;51.380;0.098;2022-09-09T04:09:20;15.90;99.90
63260;DHT22;49390;51.380;0.098;2022-09-09T04:11:50;15.90;99.90
63260;DHT22;49390;51.380;0.098;2022-09-09T04:14:18;16.00;99.90
63260;DHT22;49390;51.380;0.098;2022-09-09T04:16:47;16.00;99.90
63260;DHT22;49390;51.380;0.098;2022-09-09T04:19:15;16.00;99.90
63260;DHT22;49390;51.380;0.098;2022-09-09T04:21:44;16.00;99.90
63260;DHT22;49390;51.380;0.098;2022-09-09T04:24:12;16.00;99.90
63260;DHT22;49390;51.380;0.098;2022-09-09T04:26:44;16.00;99.90
63260;DHT22;49390;51.380;0.098;2022-09-09T04:29:14;16.00;99.90
63260;DHT22;49390;51.380;0.098;2022-09-09T04:31:42;16.00;99.90
63260;DHT22;49390;51.380;0.098;2022-09-09T04:34:10;16.00;99.90
63260;DHT22;49390;51.380;0.098;2022-09-09T04:36:39;16.00;99.90
63260;DHT22;49390;51.380;0.098;2022-09-09T04:39:09;16.00;99.90
63260;DHT22;49390;51.380;0.098;2022-09-09T04:41:37;16.00;99.90
63260;DHT22;49390;51.380;0.098;2022-09-09T04:44:06;16.00;99.90
63260;DHT22;49390;51.380;0.098;2022-09-09T04:46:34;16.00;99.90
63260;DHT22;49390;51.380;0.098;2022-09-09T04:49:02;16.00;99.90
63260;DHT22;49390;51.380;0.098;2022-09-09T04:51:32;16.00;99.90
63260;DHT22;49390;51.380;0.098;2022-09-09T04:54:00;15.90;99.90
63260;DHT22;49390;51.380;0.098;2022-09-09T04:56:28;16.00;99.90
63260;DHT22;49390;51.380;0.098;2022-09-09T04:58:58;15.90;99.90
63260;DHT22;49390;51.380;0.098;2022-09-09T05:01:36;15.90;99.90
63260;DHT22;49390;51.380;0.098;2022-09-09T05:04:09;15.90;99.90
63260;DHT22;49390;51.380;0.098;2022-09-09T05:06:38;15.90;99.90
63260;DHT22;49390;51.380;0.098;2022-09-09T05:09:06;15.90;99.90
63260;DHT22;49390;51.380;0.098;2022-09-09T05:11:34;15.90;99.90
63260;DHT22;49390;51.380;0.098;2022-09-09T05:14:23;15.90;99.90
63260;DHT22;49390;51.380;0.098;2022-09-09T05:16:52;15.90;99.90
63260;DHT22;49390;51.380;0.098;2022-09-09T05:19:21;15.90;99.90
63260;DHT22;49390;51.380;0.098;2022-09-09T05:21:51;15.90;99.90
63260;DHT22;49390;51.380;0.098;2022-09-09T05:24:27;15.90;99.90
63260;DHT22;49390;51.380;0.098;2022-09-09T05:26:57;15.90;99.90
63260;DHT22;49390;51.380;0.098;2022-09-09T05:29:28;15.90;99.90
63260;DHT22;49390;51.380;0.098;2022-09-09T05:31:57;15.90;99.90
63260;DHT22;49390;51.380;0.098;2022-09-09T05:34:26;15.90;99.90
63260;DHT22;49390;51.380;0.098;2022-09-09T05:36:55;15.90;99.90
63260;DHT22;49390;51.380;0.098;2022-09-09T05:39:24;15.90;99.90
63260;DHT22;49390;51.380;0.098;2022-09-09T05:41:53;15.90;99.90
63260;DHT22;49390;51.380;0.098;2022-09-09T05:44:22;15.90;99.90
63260;DHT22;49390;51.380;0.098;2022-09-09T05:46:53;15.90;99.90
63260;DHT22;49390;51.380;0.098;2022-09-09T05:49:22;15.90;99.90
63260;DHT22;49390;51.380;0.098;2022-09-09T05:51:51;15.90;99.90
63260;DHT22;49390;51.380;0.098;2022-09-09T05:54:22;15.90;99.90
63260;DHT22;49390;51.380;0.098;2022-09-09T05:56:53;15.90;99.90
63260;DHT22;49390;51.380;0.098;2022-09-09T05:59:23;15.90;99.90
63260;DHT22;49390;51.380;0.098;2022-09-09T06:01:54;15.90;99.90
63260;DHT22;49390;51.380;0.098;2022-09-09T06:04:29;15.90;99.90
63260;DHT22;49390;51.380;0.098;2022-09-09T06:07:00;15.90;99.90
63260;DHT22;49390;51.380;0.098;2022-09-09T06:09:31;15.80;99.90
63260;DHT22;49390;51.380;0.098;2022-09-09T06:12:00;15.80;99.90
63260;DHT22;49390;51.380;0.098;2022-09-09T06:14:55;15.90;99.90
63260;DHT22;49390;51.380;0.098;2022-09-09T06:17:24;15.90;99.90
63260;DHT22;49390;51.380;0.098;2022-09-09T06:19:52;15.80;99.90
63260;DHT22;49390;51.380;0.098;2022-09-09T06:22:21;15.90;99.90
63260;DHT22;49390;51.380;0.098;2022-09-09T06:24:49;15.90;99.90
63260;DHT22;49390;51.380;0.098;2022-09-09T06:27:18;15.90;99.90
63260;DHT22;49390;51.380;0.098;2022-09-09T06:29:47;15.90;99.90
63260;DHT22;49390;51.380;0.098;2022-09-09T06:32:16;15.90;99.90
63260;DHT22;49390;51.380;0.098;2022-09-09T06:34:45;16.00;99.90
63260;DHT22;49390;51.380;0.098;2022-09-09T06:37:14;16.00;99.90
63260;DHT22;49390;51.380;0.098;2022-09-09T06:39:48;16.00;99.90
63260;DHT22;49390;51.380;0.098;2022-09-09T06:42:17;16.00;99.90
63260;DHT22;49390;51.380;0.098;2022-09-09T06:44:55;16.00;99.90
63260;DHT22;49390;51.380;0.098;2022-09-09T06:47:32;16.00;99.90
63260;DHT22;49390;51.380;0.098;2022-09-09T06:50:02;16.10;99.90
63260;DHT22;49390;51.380;0.098;2022-09-09T06:52:34;16.00;99.90
63260;DHT22;49390;51.380;0.098;2022-09-09T06:55:03;16.10;99.90
63260;DHT22;49390;51.380;0.098;2022-09-09T06:57:33;16.10;99.90
63260;DHT22;49390;51.380;0.098;2022-09-09T07:00:13;16.10;99.90
63260;DHT22;49390;51.380;0.098;2022-09-09T07:02:41;16.10;99.90
63260;DHT22;49390;51.380;0.098;2022-09-09T07:05:12;16.10;99.90
63260;DHT22;49390;51.380;0.098;2022-09-09T07:07:42;16.20;99.90
63260;DHT22;49390;51.380;0.098;2022-09-09T07:10:12;16.20;99.90
63260;DHT22;49390;51.380;0.098;2022-09-09T07:12:53;16.30;99.90
63260;DHT22;49390;51.380;0.098;2022-09-09T07:15:24;16.30;99.90
63260;DHT22;49390;51.380;0.098;2022-09-09T07:17:54;16.40;99.90
63260;DHT22;49390;51.380;0.098;2022-09-09T07:20:22;16.40;99.90
63260;DHT22;49390;51.380;0.098;2022-09-09T07:22:55;16.40;99.90
63260;DHT22;49390;51.380;0.098;2022-09-09T07:25:24;16.40;99.90
63260;DHT22;49390;51.380;0.098;2022-09-09T07:27:52;16.50;99.90
63260;DHT22;49390;51.380;0.098;2022-09-09T07:30:21;16.50;99.90
63260;DHT22;49390;51.380;0.098;2022-09-09T07:32:55;16.50;99.90
63260;DHT22;49390;51.380;0.098;2022-09-09T07:35:24;16.60;99.90
63260;DHT22;49390;51.380;0.098;2022-09-09T07:37:53;16.60;99.90
63260;DHT22;49390;51.380;0.098;2022-09-09T07:40:21;16.70;99.90
63260;DHT22;49390;51.380;0.098;2022-09-09T07:42:50;16.70;99.90
63260;DHT22;49390;51.380;0.098;2022-09-09T07:45:18;16.80;99.90
63260;DHT22;49390;51.380;0.098;2022-09-09T07:47:46;16.80;99.90
63260;DHT22;49390;51.380;0.098;2022-09-09T07:50:18;16.90;99.90
63260;DHT22;49390;51.380;0.098;2022-09-09T07:52:46;16.90;99.90
63260;DHT22;49390;51.380;0.098;2022-09-09T07:55:14;16.80;99.90
63260;DHT22;49390;51.380;0.098;2022-09-09T07:57:43;16.80;99.90
63260;DHT22;49390;51.380;0.098;2022-09-09T08:00:12;16.80;99.90
63260;DHT22;49390;51.380;0.098;2022-09-09T08:02:48;16.80;99.90
63260;DHT22;49390;51.380;0.098;2022-09-09T08:05:17;16.80;99.90
63260;DHT22;49390;51.380;0.098;2022-09-09T08:07:46;16.80;99.90
63260;DHT22;49390;51.380;0.098;2022-09-09T08:10:15;16.80;99.90
63260;DHT22;49390;51.380;0.098;2022-09-09T08:12:45;16.80;99.90
63260;DHT22;49390;51.380;0.098;2022-09-09T08:15:34;16.90;99.90
63260;DHT22;49390;51.380;0.098;2022-09-09T08:18:04;17.00;99.90
63260;DHT22;49390;51.380;0.098;2022-09-09T08:20:32;17.10;99.90
63260;DHT22;49390;51.380;0.098;2022-09-09T08:23:00;17.10;99.90
63260;DHT22;49390;51.380;0.098;2022-09-09T08:25:28;17.20;99.90
63260;DHT22;49390;51.380;0.098;2022-09-09T08:27:56;17.20;99.90
63260;DHT22;49390;51.380;0.098;2022-09-09T08:30:25;17.30;99.90
63260;DHT22;49390;51.380;0.098;2022-09-09T08:32:54;17.40;99.90
63260;DHT22;49390;51.380;0.098;2022-09-09T08:35:23;17.50;99.90
63260;DHT22;49390;51.380;0.098;2022-09-09T08:37:54;17.80;99.90
63260;DHT22;49390;51.380;0.098;2022-09-09T08:40:28;18.00;99.90
63260;DHT22;49390;51.380;0.098;2022-09-09T08:43:03;18.10;99.90
63260;DHT22;49390;51.380;0.098;2022-09-09T08:45:46;18.20;99.90
63260;DHT22;49390;51.380;0.098;2022-09-09T08:51:13;18.40;99.90
63260;DHT22;49390;51.380;0.098;2022-09-09T08:53:46;18.40;99.90
63260;DHT22;49390;51.380;0.098;2022-09-09T08:56:21;18.40;99.90
63260;DHT22;49390;51.380;0.098;2022-09-09T08:58:56;18.40;99.90
63260;DHT22;49390;51.380;0.098;2022-09-09T09:04:41;18.30;99.90
63260;DHT22;49390;51.380;0.098;2022-09-09T09:07:26;18.30;99.90
63260;DHT22;49390;51.380;0.098;2022-09-09T09:13:13;18.10;99.90
63260;DHT22;49390;51.380;0.098;2022-09-09T09:15:45;17.90;99.90
63260;DHT22;49390;51.380;0.098;2022-09-09T09:18:17;17.80;99.90
63260;DHT22;49390;51.380;0.098;2022-09-09T09:21:16;17.70;99.90
63260;DHT22;49390;51.380;0.098;2022-09-09T09:23:58;17.60;99.90
63260;DHT22;49390;51.380;0.098;2022-09-09T09:26:34;17.50;99.90
63260;DHT22;49390;51.380;0.098;2022-09-09T09:29:14;17.40;99.90
63260;DHT22;49390;51.380;0.098;2022-09-09T09:31:55;17.50;99.90
63260;DHT22;49390;51.380;0.098;2022-09-09T09:34:26;17.50;99.90
63260;DHT22;49390;51.380;0.098;2022-09-09T09:36:58;17.50;99.90
63260;DHT22;49390;51.380;0.098;2022-09-09T09:39:33;17.60;99.90
63260;DHT22;49390;51.380;0.098;2022-09-09T09:42:26;17.70;99.90
63260;DHT22;49390;51.380;0.098;2022-09-09T09:45:08;17.80;99.90
63260;DHT22;49390;51.380;0.098;2022-09-09T09:47:36;17.90;99.90
63260;DHT22;49390;51.380;0.098;2022-09-09T09:50:18;18.00;99.90
63260;DHT22;49390;51.380;0.098;2022-09-09T09:53:01;18.20;99.90
63260;DHT22;49390;51.380;0.098;2022-09-09T09:55:33;18.40;99.90
63260;DHT22;49390;51.380;0.098;2022-09-09T09:58:05;18.50;99.90
63260;DHT22;49390;51.380;0.098;2022-09-09T10:00:36;18.60;99.90
63260;DHT22;49390;51.380;0.098;2022-09-09T10:05:55;18.70;99.90
63260;DHT22;49390;51.380;0.098;2022-09-09T10:08:26;18.70;99.90
63260;DHT22;49390;51.380;0.098;2022-09-09T10:13:39;18.70;99.90
63260;DHT22;49390;51.380;0.098;2022-09-09T10:19:16;18.70;99.90
63260;DHT22;49390;51.380;0.098;2022-09-09T10:28:08;18.60;99.90
63260;DHT22;49390;51.380;0.098;2022-09-09T10:33:51;18.50;99.90
63260;DHT22;49390;51.380;0.098;2022-09-09T10:36:26;18.50;99.90
63260;DHT22;49390;51.380;0.098;2022-09-09T10:42:31;18.50;99.90
63260;DHT22;49390;51.380;0.098;2022-09-09T10:48:36;18.50;99.90
63260;DHT22;49390;51.380;0.098;2022-09-09T10:51:27;18.60;99.90
63260;DHT22;49390;51.380;0.098;2022-09-09T10:54:37;18.80;99.90
63260;DHT22;49390;51.380;0.098;2022-09-09T10:57:00;18.80;99.90
63260;DHT22;49390;51.380;0.098;2022-09-09T10:59:38;18.80;99.90
63260;DHT22;49390;51.380;0.098;2022-09-09T11:02:28;18.80;99.90
63260;DHT22;49390;51.380;0.098;2022-09-09T11:07:40;18.70;99.90
63260;DHT22;49390;51.380;0.098;2022-09-09T11:14:43;18.50;99.90
63260;DHT22;49390;51.380;0.098;2022-09-09T11:17:20;18.40;99.90
63260;DHT22;49390;51.380;0.098;2022-09-09T11:19:55;18.40;99.90
63260;DHT22;49390;51.380;0.098;2022-09-09T11:22:33;18.50;99.90
63260;DHT22;49390;51.380;0.098;2022-09-09T11:25:14;18.50;99.90
63260;DHT22;49390;51.380;0.098;2022-09-09T11:33:58;18.80;99.90
63260;DHT22;49390;51.380;0.098;2022-09-09T11:36:40;18.80;99.90
63260;DHT22;49390;51.380;0.098;2022-09-09T11:42:23;18.90;99.90
63260;DHT22;49390;51.380;0.098;2022-09-09T11:44:52;18.90;99.90
63260;DHT22;49390;51.380;0.098;2022-09-09T11:47:30;18.90;99.90
63260;DHT22;49390;51.380;0.098;2022-09-09T11:52:47;18.80;99.90
63260;DHT22;49390;51.380;0.098;2022-09-09T11:55:36;18.80;99.90
63260;DHT22;49390;51.380;0.098;2022-09-09T11:58:06;18.80;99.90
63260;DHT22;49390;51.380;0.098;2022-09-09T12:00:48;18.70;99.90
63260;DHT22;49390;51.380;0.098;2022-09-09T12:03:49;18.70;99.90
63260;DHT22;49390;51.380;0.098;2022-09-09T12:06:41;18.70;99.90
63260;DHT22;49390;51.380;0.098;2022-09-09T12:12:29;18.90;99.90
63260;DHT22;49390;51.380;0.098;2022-09-09T12:17:58;19.10;99.90
63260;DHT22;49390;51.380;0.098;2022-09-09T12:23:28;19.30;99.90
63260;DHT22;49390;51.380;0.098;2022-09-09T12:26:07;19.30;99.90
63260;DHT22;49390;51.380;0.098;2022-09-09T12:31:25;19.50;99.90
63260;DHT22;49390;51.380;0.098;2022-09-09T12:34:17;19.60;99.90
63260;DHT22;49390;51.380;0.098;2022-09-09T12:36:53;19.70;99.90
63260;DHT22;49390;51.380;0.098;2022-09-09T12:39:37;19.90;99.90
63260;DHT22;49390;51.380;0.098;2022-09-09T12:42:20;20.00;99.90
63260;DHT22;49390;51.380;0.098;2022-09-09T12:44:52;20.10;99.90
63260;DHT22;49390;51.380;0.098;2022-09-09T12:47:29;20.20;99.90
63260;DHT22;49390;51.380;0.098;2022-09-09T12:49:59;20.30;99.90
63260;DHT22;49390;51.380;0.098;2022-09-09T12:52:29;20.40;99.90
63260;DHT22;49390;51.380;0.098;2022-09-09T12:55:02;20.30;99.90
63260;DHT22;49390;51.380;0.098;2022-09-09T12:57:38;20.30;99.90
63260;DHT22;49390;51.380;0.098;2022-09-09T13:00:21;20.50;99.90
63260;DHT22;49390;51.380;0.098;2022-09-09T13:02:54;20.60;99.90
63260;DHT22;49390;51.380;0.098;2022-09-09T13:05:31;20.70;99.90
63260;DHT22;49390;51.380;0.098;2022-09-09T13:08:22;20.90;99.90
63260;DHT22;49390;51.380;0.098;2022-09-09T13:11:07;20.90;99.90
63260;DHT22;49390;51.380;0.098;2022-09-09T13:13:40;20.90;99.90
63260;DHT22;49390;51.380;0.098;2022-09-09T13:16:31;21.00;99.90
63260;DHT22;49390;51.380;0.098;2022-09-09T13:19:15;21.10;99.90
63260;DHT22;49390;51.380;0.098;2022-09-09T13:21:46;21.20;99.90
63260;DHT22;49390;51.380;0.098;2022-09-09T13:24:33;21.30;99.90
63260;DHT22;49390;51.380;0.098;2022-09-09T13:29:55;21.20;99.90
63260;DHT22;49390;51.380;0.098;2022-09-09T13:32:26;21.20;99.90
63260;DHT22;49390;51.380;0.098;2022-09-09T13:35:00;21.20;99.90
63260;DHT22;49390;51.380;0.098;2022-09-09T13:37:34;21.30;99.90
63260;DHT22;49390;51.380;0.098;2022-09-09T13:40:18;21.30;99.90
63260;DHT22;49390;51.380;0.098;2022-09-09T13:42:56;21.50;99.90
63260;DHT22;49390;51.380;0.098;2022-09-09T13:45:26;21.70;99.90
63260;DHT22;49390;51.380;0.098;2022-09-09T13:47:55;21.80;99.90
63260;DHT22;49390;51.380;0.098;2022-09-09T13:50:41;21.80;99.90
63260;DHT22;49390;51.380;0.098;2022-09-09T13:53:11;21.60;99.90
63260;DHT22;49390;51.380;0.098;2022-09-09T13:55:39;21.50;99.90
63260;DHT22;49390;51.380;0.098;2022-09-09T13:58:16;21.30;99.90
63260;DHT22;49390;51.380;0.098;2022-09-09T14:00:47;21.20;99.90
63260;DHT22;49390;51.380;0.098;2022-09-09T14:03:18;21.20;99.90
63260;DHT22;49390;51.380;0.098;2022-09-09T14:05:47;21.10;99.90
63260;DHT22;49390;51.380;0.098;2022-09-09T14:08:24;21.10;99.90
63260;DHT22;49390;51.380;0.098;2022-09-09T14:10:58;21.10;99.90
63260;DHT22;49390;51.380;0.098;2022-09-09T14:13:26;21.20;99.90
63260;DHT22;49390;51.380;0.098;2022-09-09T14:15:54;21.30;99.90
63260;DHT22;49390;51.380;0.098;2022-09-09T14:18:23;21.40;99.90
63260;DHT22;49390;51.380;0.098;2022-09-09T14:20:54;21.30;99.90
63260;DHT22;49390;51.380;0.098;2022-09-09T14:23:22;21.30;99.90
63260;DHT22;49390;51.380;0.098;2022-09-09T14:25:51;21.20;99.90
63260;DHT22;49390;51.380;0.098;2022-09-09T14:28:20;21.10;99.90
63260;DHT22;49390;51.380;0.098;2022-09-09T14:31:08;21.00;99.90
63260;DHT22;49390;51.380;0.098;2022-09-09T14:33:40;20.90;99.90
63260;DHT22;49390;51.380;0.098;2022-09-09T14:36:09;20.80;99.90
63260;DHT22;49390;51.380;0.098;2022-09-09T14:38:40;20.80;99.90
63260;DHT22;49390;51.380;0.098;2022-09-09T14:41:14;20.80;99.90
63260;DHT22;49390;51.380;0.098;2022-09-09T14:44:03;20.80;99.90
63260;DHT22;49390;51.380;0.098;2022-09-09T14:46:34;20.90;99.90
63260;DHT22;49390;51.380;0.098;2022-09-09T14:51:24;20.90;99.90
63260;DHT22;49390;51.380;0.098;2022-09-09T14:53:56;20.80;99.90
63260;DHT22;49390;51.380;0.098;2022-09-09T14:56:27;20.80;99.90
63260;DHT22;49390;51.380;0.098;2022-09-09T14:58:58;20.70;99.90
63260;DHT22;49390;51.380;0.098;2022-09-09T15:01:29;20.60;99.90
63260;DHT22;49390;51.380;0.098;2022-09-09T15:04:04;20.50;99.90
63260;DHT22;49390;51.380;0.098;2022-09-09T15:06:35;20.50;99.90
63260;DHT22;49390;51.380;0.098;2022-09-09T15:09:07;20.40;99.90
63260;DHT22;49390;51.380;0.098;2022-09-09T15:11:37;20.30;99.90
63260;DHT22;49390;51.380;0.098;2022-09-09T15:14:07;20.30;99.90
63260;DHT22;49390;51.380;0.098;2022-09-09T15:16:37;20.30;99.90
63260;DHT22;49390;51.380;0.098;2022-09-09T15:19:09;20.20;99.90
63260;DHT22;49390;51.380;0.098;2022-09-09T15:21:40;20.20;99.90
63260;DHT22;49390;51.380;0.098;2022-09-09T15:24:09;20.20;99.90
63260;DHT22;49390;51.380;0.098;2022-09-09T15:26:38;20.30;99.90
63260;DHT22;49390;51.380;0.098;2022-09-09T15:29:09;20.30;99.90
63260;DHT22;49390;51.380;0.098;2022-09-09T15:31:38;20.40;99.90
63260;DHT22;49390;51.380;0.098;2022-09-09T15:34:09;20.40;99.90
63260;DHT22;49390;51.380;0.098;2022-09-09T15:36:43;20.30;99.90
63260;DHT22;49390;51.380;0.098;2022-09-09T15:39:17;20.30;99.90
63260;DHT22;49390;51.380;0.098;2022-09-09T15:41:48;20.20;99.90
63260;DHT22;49390;51.380;0.098;2022-09-09T15:44:16;20.10;99.90
63260;DHT22;49390;51.380;0.098;2022-09-09T15:46:48;20.00;99.90
63260;DHT22;49390;51.380;0.098;2022-09-09T15:49:24;19.90;99.90
63260;DHT22;49390;51.380;0.098;2022-09-09T15:51:54;19.90;99.90
63260;DHT22;49390;51.380;0.098;2022-09-09T15:54:24;19.90;99.90
63260;DHT22;49390;51.380;0.098;2022-09-09T15:56:55;19.90;99.90
63260;DHT22;49390;51.380;0.098;2022-09-09T15:59:29;19.90;99.90
63260;DHT22;49390;51.380;0.098;2022-09-09T16:02:00;19.90;99.90
63260;DHT22;49390;51.380;0.098;2022-09-09T16:04:33;19.90;99.90
63260;DHT22;49390;51.380;0.098;2022-09-09T16:07:03;19.80;99.90
63260;DHT22;49390;51.380;0.098;2022-09-09T16:09:34;19.80;99.90
63260;DHT22;49390;51.380;0.098;2022-09-09T16:12:04;19.70;99.90
63260;DHT22;49390;51.380;0.098;2022-09-09T16:14:39;19.40;99.90
63260;DHT22;49390;51.380;0.098;2022-09-09T16:17:07;19.20;99.90
63260;DHT22;49390;51.380;0.098;2022-09-09T16:19:36;18.90;99.90
63260;DHT22;49390;51.380;0.098;2022-09-09T16:22:06;18.60;99.90
63260;DHT22;49390;51.380;0.098;2022-09-09T16:24:35;18.50;99.90
63260;DHT22;49390;51.380;0.098;2022-09-09T16:27:04;18.30;99.90
63260;DHT22;49390;51.380;0.098;2022-09-09T16:29:32;18.30;99.90
63260;DHT22;49390;51.380;0.098;2022-09-09T16:32:01;18.20;99.90
63260;DHT22;49390;51.380;0.098;2022-09-09T16:34:31;18.20;99.90
63260;DHT22;49390;51.380;0.098;2022-09-09T16:37:02;18.20;99.90
63260;DHT22;49390;51.380;0.098;2022-09-09T16:39:32;18.30;99.90
63260;DHT22;49390;51.380;0.098;2022-09-09T16:42:01;18.30;99.90
63260;DHT22;49390;51.380;0.098;2022-09-09T16:44:31;18.30;99.90
63260;DHT22;49390;51.380;0.098;2022-09-09T16:46:59;18.30;99.90
63260;DHT22;49390;51.380;0.098;2022-09-09T16:49:30;18.20;99.90
63260;DHT22;49390;51.380;0.098;2022-09-09T16:52:01;18.10;99.90
63260;DHT22;49390;51.380;0.098;2022-09-09T16:54:29;18.10;99.90
63260;DHT22;49390;51.380;0.098;2022-09-09T16:57:00;18.10;99.90
63260;DHT22;49390;51.380;0.098;2022-09-09T16:59:28;18.00;99.90
63260;DHT22;49390;51.380;0.098;2022-09-09T17:01:56;18.00;99.90
63260;DHT22;49390;51.380;0.098;2022-09-09T17:04:27;18.00;99.90
63260;DHT22;49390;51.380;0.098;2022-09-09T17:06:56;18.10;99.90
63260;DHT22;49390;51.380;0.098;2022-09-09T17:09:29;18.10;99.90
63260;DHT22;49390;51.380;0.098;2022-09-09T17:11:59;18.10;99.90
63260;DHT22;49390;51.380;0.098;2022-09-09T17:14:29;18.20;99.90
63260;DHT22;49390;51.380;0.098;2022-09-09T17:17:00;18.20;99.90
63260;DHT22;49390;51.380;0.098;2022-09-09T17:19:57;18.20;99.90
63260;DHT22;49390;51.380;0.098;2022-09-09T17:22:26;18.20;99.90
63260;DHT22;49390;51.380;0.098;2022-09-09T17:24:55;18.20;99.90
63260;DHT22;49390;51.380;0.098;2022-09-09T17:27:23;18.20;99.90
63260;DHT22;49390;51.380;0.098;2022-09-09T17:29:52;18.30;99.90
63260;DHT22;49390;51.380;0.098;2022-09-09T17:32:20;18.20;99.90
63260;DHT22;49390;51.380;0.098;2022-09-09T17:34:49;18.30;99.90
63260;DHT22;49390;51.380;0.098;2022-09-09T17:37:18;18.20;99.90
63260;DHT22;49390;51.380;0.098;2022-09-09T17:39:46;18.20;99.90
63260;DHT22;49390;51.380;0.098;2022-09-09T17:42:15;18.20;99.90
63260;DHT22;49390;51.380;0.098;2022-09-09T17:44:44;18.20;99.90
63260;DHT22;49390;51.380;0.098;2022-09-09T17:47:12;18.20;99.90
63260;DHT22;49390;51.380;0.098;2022-09-09T17:49:43;18.10;99.90